Exton, United Kingdom
Current Conditions -  °F | °C
As of 6:50 PM on Monday 22 Dec 2014 (Local Time) from EGDX Reporting Station
Overcast Overcast  
Wind Chill: 52°   Ceiling: 1500
Heat Index: 52°   Visibility: 6mi
Dew Point: 48°   Wind: 23mph
Humidity: 88%   Direction: 250°WSW
Pressure: 30.06"   Gusts: 36mph
Location:  51.15°N, 3.5°W
Report Text: EGDX 221850Z AUTO 25020G31KT 9999 OVC015/// 11/09 Q1018
Loading
Personal Weather Stations






























Interactive Weather Map New forecast layout! Learn more

10-Day Weather Forecast

Advertisements
Track Severe Weather on mobile